Impacts METAR Board
IDs:

KMIA - Miami Intl, FL, US

Updated at: 0400 UTC 12 Dec 2018
Potential Impact None Slight Moderate High
Time 11/16Z 11/17Z 11/18Z 11/19Z 11/20Z 11/21Z 11/22Z 11/23Z 12/00Z 12/01Z 12/02Z 12/03Z 12/04Z
Temp59 62 63 65 65 64 63 61 59 57 56 55 54
Dewpt47 46 47 46 45 44 43 45 43 43 43 43 44
Altim30.29 30.26 30.23 30.20 30.20 30.21 30.22 30.23 30.25 30.26 30.26 30.27 30.27
VIS10 10 10 10 10 10 10 10 10 10 10 10 10
CIG-- -- -- -- -- -- -- -- -- -- -- -- --
CoverFEWSCTSCTFEWFEWFEWFEWFEWCLRFEWCLRCLRCLR
FltCatVFRVFRVFRVFRVFRVFRVFRVFRVFRVFRVFRVFRVFR
WX--------------------------
WDir310320300320320320320350360360350360330
WSpd12 8 9 13 10 9 9 8 5 6 7 6 5
WGst19 20 16 19 20 18 -- -- -- -- -- -- --
Raw hourly METARs
KMIA 111553Z 31012G19KT 10SM FEW030 FEW300 15/08 A3029 RMK AO2 SLP256 T01500083
KMIA 111653Z 32008G20KT 10SM FEW030 SCT300 17/08 A3026 RMK AO2 SLP247 T01670078
KMIA 111753Z 30009G16KT 10SM FEW030 SCT300 17/08 A3023 RMK AO2 SLP235 T01720083 10172 20117 58022
KMIA 111853Z 32013G19KT 10SM FEW035 FEW300 18/08 A3020 RMK AO2 SLP226 T01830078
KMIA 111953Z 32010G20KT 10SM FEW035 FEW300 18/07 A3020 RMK AO2 SLP227 T01830072
KMIA 112053Z 32009G18KT 10SM FEW040 FEW300 18/07 A3021 RMK AO2 SLP229 T01780067 55006
KMIA 112153Z 32009KT 10SM FEW040 FEW300 17/06 A3022 RMK AO2 SLP232 T01720061
KMIA 112253Z 35008KT 10SM FEW040 FEW300 16/07 A3023 RMK AO2 SLP235 T01610072
KMIA 112353Z 36005KT 10SM CLR 15/06 A3025 RMK AO2 SLP242 T01500061 10189 20150 53013
KMIA 120053Z 36006KT 10SM FEW250 14/06 A3026 RMK AO2 SLP245 T01390061
KMIA 120153Z 35007KT 10SM CLR 13/06 A3026 RMK AO2 SLP247 T01330061
KMIA 120253Z 36006KT 10SM CLR 13/06 A3027 RMK AO2 SLP250 T01280061 51008 $
KMIA 120353Z 33005KT 10SM CLR 12/07 A3027 RMK AO2 SLP249 T01220067 $



Page loaded:  04:00 UTC  |   08:00 PM Pacific  |   09:00 PM Mountain  |   10:00 PM Central  |   11:00 PM Eastern

 

ADVISORIES

FORECASTS

FORECASTS

OBSERVATIONS

USER TOOLS

ABOUT US